Portada
METAR-TAF:

METAR-TAF

Aeroports :

Roi Et, Tailàndia

latitud: 16-07-00N, longitud: 103-46-26E, altitud: 138 m

Observació

L'informe es va fer fa 28 minuts, a les 00:00 UTC
Vent 3 kt del Sud-Est
Temperatura 19°C
Humitat 88%
Pressió 1017 hPa
Visibilitat: 8000 m
Escasses núvols a una alçada de 3000 ft

METAR: VTUV 210000Z 13003KT 8000 FEW030 19/17 Q1017 NOSIG

Hora: 07:28 (00:28 UTC)

Pronòstic

L'informe es va fer fa 1 hora i 28 minuts, a les 23:00 UTC
Pronòstic vàlid del 21 a les 00 UTC al 21 a les 24 UTC
Vent 6 kt del Est/Nord-Est
Visibilitat: 9000 m

TAF: VTUV 202300Z 2100/2124 07006KT 9000 NSC

Observacions i pronòstics meteorològics de més de 4000 aeroports (METAR i TAF).

Les estacions disponibles són els punts grocs i vermells al mapa.

Posi el ratolí al punt desitjat per veure el nom de l'estació.

Feu clic per veure les observacions i els pronòstics meteorològics.

Per canviar el mapa: feu clic els botons verds amb una creu de color negre per apropar; al botó verd amb un guió per allunyar la imatge; o en les fletxes verdes per a mapes adjacents.


METAR-TAF: